createdAt,value
2023-05-06T00:02:18.611Z,2.00
2023-05-06T00:04:44.821Z,1.67
2023-05-06T00:07:07.144Z,1.80
2023-05-06T00:09:29.446Z,1.83
2023-05-06T00:11:52.176Z,1.70
2023-05-06T00:14:14.524Z,1.60
2023-05-06T00:16:36.859Z,1.70
2023-05-06T00:18:59.200Z,2.13
2023-05-06T00:21:21.515Z,1.93
2023-05-06T00:23:44.096Z,1.80
2023-05-06T00:26:06.708Z,1.67
2023-05-06T00:28:29.006Z,1.57
2023-05-06T00:30:51.226Z,1.40
2023-05-06T00:33:14.038Z,1.50
2023-05-06T00:35:36.539Z,1.53
2023-05-06T00:38:07.087Z,1.77
2023-05-06T00:40:54.385Z,1.80
2023-05-06T00:43:16.725Z,1.70
2023-05-06T00:45:39.978Z,1.70
2023-05-06T00:48:02.517Z,2.10
2023-05-06T00:50:25.049Z,1.80
2023-05-06T00:52:47.437Z,2.30
2023-05-06T00:55:10.458Z,2.10
2023-05-06T00:57:33.204Z,2.17
2023-05-06T00:59:55.604Z,2.10
2023-05-06T01:02:17.947Z,1.80
2023-05-06T01:04:41.443Z,2.20
2023-05-06T01:07:03.754Z,2.43
2023-05-06T01:09:30.040Z,2.63
2023-05-06T01:12:11.040Z,2.20
2023-05-06T01:14:36.202Z,1.93
2023-05-06T01:17:00.411Z,2.20
2023-05-06T01:19:37.845Z,2.13
2023-05-06T01:22:03.565Z,2.57
2023-05-06T01:24:35.144Z,2.20
2023-05-06T01:26:57.411Z,2.13
2023-05-06T01:29:19.874Z,2.13
2023-05-06T01:31:48.111Z,2.70
2023-05-06T01:34:16.390Z,2.67
2023-05-06T01:36:46.701Z,2.57
2023-05-06T01:39:18.888Z,2.20
2023-05-06T01:41:42.061Z,2.20
2023-05-06T01:44:06.650Z,2.40
2023-05-06T01:46:32.000Z,2.40
2023-05-06T01:48:55.144Z,2.10
2023-05-06T01:51:18.283Z,2.10
2023-05-06T01:53:41.286Z,2.40
2023-05-06T01:56:06.502Z,2.10
2023-05-06T01:58:28.918Z,2.13
2023-05-06T02:00:51.253Z,3.23
2023-05-06T02:03:13.814Z,2.30
2023-05-06T02:05:36.178Z,2.40
2023-05-06T02:07:59.088Z,3.03
2023-05-06T02:10:21.585Z,2.43
2023-05-06T02:12:50.763Z,3.00
2023-05-06T02:15:13.039Z,2.50
2023-05-06T02:17:36.099Z,2.53
2023-05-06T02:20:01.312Z,2.63
2023-05-06T02:22:23.714Z,2.50
2023-05-06T02:24:46.026Z,2.80
2023-05-06T02:27:08.611Z,2.60
2023-05-06T02:29:30.869Z,2.30
2023-05-06T02:31:53.179Z,2.27
2023-05-06T02:34:16.240Z,2.40
2023-05-06T02:36:38.928Z,2.13
2023-05-06T02:39:01.172Z,2.10
2023-05-06T02:41:23.410Z,2.23
2023-05-06T02:43:47.463Z,2.27
2023-05-06T02:46:09.740Z,2.00
2023-05-06T02:48:31.995Z,2.20
2023-05-06T02:50:54.251Z,2.00
2023-05-06T02:53:16.555Z,2.70
2023-05-06T02:55:38.843Z,3.00
2023-05-06T02:58:01.040Z,3.17
2023-05-06T03:00:23.350Z,2.80
2023-05-06T03:02:45.973Z,2.33
2023-05-06T03:05:09.009Z,2.63
2023-05-06T03:07:31.843Z,2.60
2023-05-06T03:09:54.044Z,2.60
2023-05-06T03:12:16.559Z,2.73
2023-05-06T03:14:38.914Z,2.53
2023-05-06T03:17:01.210Z,3.47
2023-05-06T03:19:24.028Z,3.40
2023-05-06T03:21:46.292Z,3.47
2023-05-06T03:24:08.998Z,3.53
2023-05-06T03:26:31.336Z,3.53
2023-05-06T03:28:54.341Z,3.63
2023-05-06T03:31:18.139Z,2.87
2023-05-06T03:33:41.039Z,2.83
2023-05-06T03:36:05.061Z,3.20
2023-05-06T03:38:27.878Z,3.30
2023-05-06T03:40:56.159Z,5.47
2023-05-06T03:43:18.433Z,4.83
2023-05-06T03:45:43.825Z,4.30
2023-05-06T03:48:06.516Z,5.33
2023-05-06T03:50:31.728Z,4.67
2023-05-06T03:52:54.127Z,5.00
2023-05-06T03:55:18.652Z,4.60
2023-05-06T03:57:41.086Z,4.20
2023-05-06T04:00:04.024Z,4.10
2023-05-06T04:02:29.328Z,4.00
2023-05-06T04:04:52.787Z,4.83
2023-05-06T04:07:15.025Z,5.17
2023-05-06T04:09:37.344Z,5.30
2023-05-06T04:12:03.558Z,4.80
2023-05-06T04:14:26.110Z,5.30
2023-05-06T04:16:48.839Z,5.40
2023-05-06T04:19:11.284Z,5.90
2023-05-06T04:21:34.283Z,5.87
2023-05-06T04:24:00.694Z,5.90
2023-05-06T04:26:29.216Z,5.13
2023-05-06T04:28:51.567Z,5.13
2023-05-06T04:31:14.627Z,5.40
2023-05-06T04:33:42.137Z,5.03
2023-05-06T04:36:09.411Z,3.73
2023-05-06T04:38:33.908Z,4.20
2023-05-06T04:40:56.433Z,3.77
2023-05-06T04:43:19.019Z,4.37
2023-05-06T04:45:49.595Z,4.40
2023-05-06T04:48:20.030Z,4.27
2023-05-06T04:50:42.783Z,2.80
2023-05-06T04:53:05.303Z,2.87
2023-05-06T04:55:28.052Z,2.53
2023-05-06T04:57:50.898Z,2.77
2023-05-06T05:00:14.566Z,2.37
2023-05-06T05:02:37.141Z,2.10
2023-05-06T05:05:00.916Z,2.17
2023-05-06T05:07:29.403Z,2.17
2023-05-06T05:09:51.999Z,2.30
2023-05-06T05:12:25.170Z,1.97
2023-05-06T05:14:48.888Z,1.60
2023-05-06T05:17:20.466Z,1.80
2023-05-06T05:19:45.656Z,1.90
2023-05-06T05:22:33.866Z,2.20
2023-05-06T05:24:56.600Z,2.20
2023-05-06T05:27:37.784Z,3.37
2023-05-06T05:30:01.175Z,3.60
2023-05-06T05:32:26.627Z,3.70
2023-05-06T05:34:52.022Z,4.27
2023-05-06T05:37:14.385Z,3.50
2023-05-06T05:39:36.714Z,4.40
2023-05-06T05:44:48.285Z,3.27
2023-05-06T05:47:13.507Z,3.57
2023-05-06T05:49:36.257Z,3.90
2023-05-06T05:51:59.515Z,3.87
2023-05-06T05:54:22.615Z,3.77
2023-05-06T05:56:45.048Z,4.00
2023-05-06T05:59:07.281Z,4.20
2023-05-06T06:01:41.049Z,3.80
2023-05-06T06:04:04.789Z,3.97
2023-05-06T06:06:30.164Z,3.57
2023-05-06T06:08:53.661Z,3.87
2023-05-06T06:11:16.821Z,3.50
2023-05-06T06:13:40.524Z,3.40
2023-05-06T06:16:03.516Z,3.60
2023-05-06T06:18:28.988Z,3.57
2023-05-06T06:20:53.269Z,3.40
2023-05-06T06:26:41.088Z,3.53
2023-05-06T06:29:13.974Z,3.73
2023-05-06T06:32:01.149Z,3.80
2023-05-06T06:34:44.101Z,3.90
2023-05-06T06:37:07.923Z,3.40
2023-05-06T06:39:30.616Z,2.90
2023-05-06T06:41:53.169Z,3.77
2023-05-06T06:47:20.766Z,3.50
2023-05-06T06:49:44.069Z,3.67
2023-05-06T06:52:09.391Z,3.50
2023-05-06T06:54:37.182Z,3.70
2023-05-06T06:57:00.044Z,3.50
2023-05-06T06:59:22.695Z,3.75
2023-05-06T07:02:32.738Z,3.58
2023-05-06T07:05:19.332Z,3.83
2023-05-06T07:07:41.975Z,3.58
2023-05-06T07:10:04.638Z,3.40
2023-05-06T07:12:27.108Z,3.60
2023-05-06T07:14:49.857Z,3.38
2023-05-06T07:20:14.152Z,3.22
2023-05-06T07:22:37.502Z,3.05
2023-05-06T07:24:59.995Z,3.42
2023-05-06T07:27:25.152Z,3.53
2023-05-06T07:29:59.452Z,3.70
2023-05-06T07:32:22.186Z,3.17
2023-05-06T07:34:44.737Z,3.05
2023-05-06T07:37:08.238Z,2.28
2023-05-06T07:39:30.959Z,2.35
2023-05-06T07:41:53.243Z,2.17
2023-05-06T07:44:15.491Z,2.13
2023-05-06T07:46:41.322Z,2.20
2023-05-06T07:49:26.974Z,2.10
2023-05-06T07:51:49.591Z,2.20
2023-05-06T07:54:15.054Z,1.90
2023-05-06T07:56:39.288Z,2.42
2023-05-06T07:59:01.741Z,2.17
2023-05-06T08:01:25.581Z,2.47
2023-05-06T08:03:48.051Z,2.42
2023-05-06T08:06:11.024Z,2.40
2023-05-06T08:08:34.280Z,2.40
2023-05-06T08:11:03.286Z,2.05
2023-05-06T08:13:27.073Z,1.70
2023-05-06T08:15:53.175Z,2.25
2023-05-06T08:18:22.221Z,2.03
2023-05-06T08:20:51.391Z,1.90
2023-05-06T08:23:38.330Z,1.80
2023-05-06T08:26:12.970Z,1.45
2023-05-06T08:28:35.301Z,1.65
2023-05-06T08:30:57.530Z,1.38
2023-05-06T08:33:20.056Z,1.80
2023-05-06T08:35:42.842Z,1.35
2023-05-06T08:38:05.798Z,1.70
2023-05-06T08:40:29.377Z,1.30
2023-05-06T08:42:51.702Z,1.27
2023-05-06T08:45:14.629Z,1.50
2023-05-06T08:47:37.408Z,1.27
2023-05-06T08:49:59.815Z,1.33
2023-05-06T08:52:22.872Z,1.38
2023-05-06T08:54:48.716Z,1.70
2023-05-06T08:57:19.645Z,1.30
2023-05-06T08:59:42.249Z,1.45
2023-05-06T09:02:05.403Z,1.70
2023-05-06T09:04:27.614Z,1.80
2023-05-06T09:07:00.860Z,1.15
2023-05-06T09:09:26.398Z,1.42
2023-05-06T09:11:53.970Z,0.93
2023-05-06T09:14:17.921Z,1.75
2023-05-06T09:16:41.173Z,1.55
2023-05-06T09:19:03.570Z,1.45
2023-05-06T09:21:36.218Z,1.30
2023-05-06T09:23:59.065Z,1.50
2023-05-06T09:26:23.500Z,1.70
2023-05-06T09:28:47.155Z,1.40
2023-05-06T09:31:21.561Z,1.48
2023-05-06T09:33:43.962Z,1.67
2023-05-06T09:36:06.905Z,1.40
2023-05-06T09:38:29.204Z,1.83
2023-05-06T09:40:51.832Z,1.45
2023-05-06T09:43:15.568Z,1.35
2023-05-06T09:45:37.903Z,1.58
2023-05-06T09:48:00.343Z,1.10
2023-05-06T09:50:23.532Z,1.23
2023-05-06T09:52:46.406Z,1.35
2023-05-06T09:55:09.484Z,1.15
2023-05-06T09:57:32.537Z,0.95
2023-05-06T09:59:55.217Z,0.90
2023-05-06T10:02:17.883Z,1.20
2023-05-06T10:04:43.523Z,1.15
2023-05-06T10:07:06.150Z,0.90
2023-05-06T10:09:31.506Z,1.08
2023-05-06T10:11:54.664Z,0.82
2023-05-06T10:14:17.245Z,0.90
2023-05-06T10:16:40.394Z,0.73
2023-05-06T10:19:03.924Z,1.05
2023-05-06T10:21:32.483Z,0.90
2023-05-06T10:23:57.844Z,0.70
2023-05-06T10:26:21.346Z,0.80
2023-05-06T10:28:44.228Z,1.05
2023-05-06T10:31:08.367Z,1.02
2023-05-06T10:33:30.671Z,1.02
2023-05-06T10:36:11.643Z,0.77
2023-05-06T10:38:35.850Z,1.17
2023-05-06T10:40:58.313Z,0.80
2023-05-06T10:43:23.560Z,0.70
2023-05-06T10:45:59.481Z,0.80
2023-05-06T10:48:21.776Z,0.60
2023-05-06T10:50:45.706Z,0.60
2023-05-06T10:53:09.064Z,0.60
2023-05-06T10:55:32.488Z,0.70
2023-05-06T10:57:56.641Z,0.60
2023-05-06T11:00:19.805Z,0.60
2023-05-06T11:02:42.532Z,0.60
2023-05-06T11:05:05.755Z,0.65
2023-05-06T11:07:28.033Z,0.50
2023-05-06T11:09:57.520Z,0.70
2023-05-06T11:12:21.535Z,0.55
2023-05-06T11:14:43.777Z,0.63
2023-05-06T11:17:10.093Z,0.55
2023-05-06T11:19:34.154Z,0.50
2023-05-06T11:21:57.620Z,0.70
2023-05-06T11:24:24.046Z,0.70
2023-05-06T11:26:48.114Z,0.43
2023-05-06T11:29:10.709Z,0.40
2023-05-06T11:31:39.710Z,0.50
2023-05-06T11:34:03.064Z,0.52
2023-05-06T11:36:25.274Z,0.50
2023-05-06T11:38:49.377Z,0.40
2023-05-06T11:41:11.831Z,0.70
2023-05-06T11:43:34.044Z,0.47
2023-05-06T11:45:56.377Z,0.57
2023-05-06T11:48:19.025Z,0.60
2023-05-06T11:50:47.979Z,0.45
2023-05-06T11:53:10.511Z,0.47
2023-05-06T11:55:32.841Z,0.40
2023-05-06T11:57:55.162Z,0.60
2023-05-06T12:00:18.724Z,0.52
2023-05-06T12:02:41.661Z,0.45
2023-05-06T12:05:04.446Z,0.55
2023-05-06T12:07:27.820Z,0.75
2023-05-06T12:09:50.661Z,0.80
2023-05-06T12:12:13.606Z,0.50
2023-05-06T12:14:37.061Z,0.60
2023-05-06T12:16:59.718Z,0.63
2023-05-06T12:19:22.574Z,0.70
2023-05-06T12:24:37.387Z,0.55
2023-05-06T12:26:59.849Z,0.50
2023-05-06T12:29:22.858Z,0.60
2023-05-06T12:31:47.436Z,0.30
2023-05-06T12:34:10.162Z,0.50
2023-05-06T12:36:32.594Z,0.60
2023-05-06T12:38:56.242Z,0.52
2023-05-06T12:41:18.539Z,0.35
2023-05-06T12:43:40.933Z,0.50
2023-05-06T12:46:07.249Z,0.43
2023-05-06T12:48:29.623Z,0.40
2023-05-06T12:50:52.017Z,0.60
2023-05-06T12:53:14.274Z,0.60
2023-05-06T12:55:37.569Z,0.32
2023-05-06T12:57:59.961Z,0.70
2023-05-06T13:00:31.680Z,0.60
2023-05-06T13:02:55.364Z,0.52
2023-05-06T13:05:17.758Z,0.40
2023-05-06T13:07:41.521Z,0.60
2023-05-06T13:10:10.823Z,0.50
2023-05-06T13:12:33.799Z,0.50
2023-05-06T13:14:56.336Z,0.40
2023-05-06T13:17:18.750Z,0.70
2023-05-06T13:19:41.619Z,0.65
2023-05-06T13:22:04.198Z,0.55
2023-05-06T13:24:29.876Z,0.63
2023-05-06T13:26:52.450Z,0.65
2023-05-06T13:29:14.958Z,0.82
2023-05-06T13:31:37.159Z,0.60
2023-05-06T13:33:59.882Z,0.80
2023-05-06T13:36:45.803Z,0.60
2023-05-06T13:39:08.942Z,0.57
2023-05-06T13:41:31.901Z,0.38
2023-05-06T13:44:01.584Z,0.70
2023-05-06T13:46:23.977Z,1.05
2023-05-06T13:48:46.269Z,0.45
2023-05-06T13:51:08.719Z,0.68
2023-05-06T13:53:31.315Z,0.40
2023-05-06T13:55:53.867Z,0.60
2023-05-06T13:58:18.693Z,0.50
2023-05-06T14:00:42.997Z,0.50
2023-05-06T14:05:42.664Z,0.77
2023-05-06T14:08:05.175Z,0.43
2023-05-06T14:10:27.464Z,0.70
2023-05-06T14:12:52.783Z,0.50
2023-05-06T14:15:15.316Z,0.65
2023-05-06T14:17:37.650Z,0.50
2023-05-06T14:19:59.875Z,0.60
2023-05-06T14:22:22.058Z,0.40
2023-05-06T14:24:44.272Z,0.70
2023-05-06T14:27:06.551Z,0.65
2023-05-06T14:29:29.062Z,0.80
2023-05-06T14:31:53.197Z,0.88
2023-05-06T14:34:15.575Z,0.57
2023-05-06T14:36:37.959Z,0.63
2023-05-06T14:39:00.255Z,0.43
2023-05-06T14:41:22.427Z,0.60
2023-05-06T14:43:44.663Z,0.82
2023-05-06T14:46:06.950Z,0.50
2023-05-06T14:48:29.209Z,0.73
2023-05-06T14:50:51.654Z,0.60
2023-05-06T14:53:13.925Z,0.60
2023-05-06T14:55:40.704Z,0.65
2023-05-06T14:58:03.730Z,0.50
2023-05-06T15:00:26.187Z,0.70
2023-05-06T15:02:48.527Z,0.63
2023-05-06T15:05:12.093Z,0.60
2023-05-06T15:07:34.762Z,0.40
2023-05-06T15:10:00.419Z,0.57
2023-05-06T15:12:22.851Z,0.40
2023-05-06T15:14:45.371Z,0.90
2023-05-06T15:17:07.882Z,0.82
2023-05-06T15:19:30.240Z,0.70
2023-05-06T15:21:52.593Z,0.82
2023-05-06T15:24:14.885Z,0.35
2023-05-06T15:26:44.712Z,0.60
2023-05-06T15:29:07.598Z,0.55
2023-05-06T15:31:32.362Z,0.93
2023-05-06T15:33:54.709Z,0.70
2023-05-06T15:36:17.215Z,0.57
2023-05-06T15:38:51.670Z,0.40
2023-05-06T15:41:13.933Z,0.60
2023-05-06T15:43:38.111Z,0.52
2023-05-06T15:46:01.309Z,0.75
2023-05-06T15:48:23.695Z,0.52
2023-05-06T15:50:45.926Z,0.60
2023-05-06T15:53:09.681Z,0.52
2023-05-06T15:55:42.363Z,0.77
2023-05-06T15:58:08.203Z,0.35
2023-05-06T16:03:09.870Z,0.68
2023-05-06T16:05:34.482Z,0.70
2023-05-06T16:07:56.790Z,0.65
2023-05-06T16:10:19.423Z,0.80
2023-05-06T16:12:41.838Z,0.52
2023-05-06T16:15:08.046Z,0.95
2023-05-06T16:17:33.115Z,0.73
2023-05-06T16:19:55.476Z,0.50
2023-05-06T16:22:17.902Z,0.60
2023-05-06T16:24:40.560Z,0.75
2023-05-06T16:27:03.502Z,0.70
2023-05-06T16:29:26.141Z,0.73
2023-05-06T16:31:49.554Z,0.90
2023-05-06T16:34:12.240Z,0.70
2023-05-06T16:36:40.644Z,0.57
2023-05-06T16:39:05.722Z,0.80
2023-05-06T16:41:31.010Z,0.60
2023-05-06T16:43:54.408Z,0.52
2023-05-06T16:46:17.101Z,1.00
2023-05-06T16:48:52.877Z,0.70
2023-05-06T16:51:16.452Z,0.60
2023-05-06T16:53:42.231Z,0.75
2023-05-06T16:56:07.068Z,0.85
2023-05-06T16:58:30.324Z,0.70
2023-05-06T17:00:54.550Z,0.88
2023-05-06T17:03:17.243Z,0.88
2023-05-06T17:05:39.974Z,0.80
2023-05-06T17:08:03.651Z,0.77
2023-05-06T17:10:29.490Z,0.82
2023-05-06T17:12:52.348Z,0.80
2023-05-06T17:15:14.815Z,0.80
2023-05-06T17:17:37.206Z,1.00
2023-05-06T17:19:59.758Z,1.23
2023-05-06T17:22:23.734Z,0.70
2023-05-06T17:24:48.479Z,0.73
2023-05-06T17:27:11.244Z,1.00
2023-05-06T17:29:33.753Z,0.90
2023-05-06T17:34:36.401Z,0.75
2023-05-06T17:37:00.050Z,1.00
2023-05-06T17:39:22.913Z,1.13
2023-05-06T17:41:45.448Z,1.17
2023-05-06T17:44:11.988Z,1.10
2023-05-06T17:46:34.542Z,1.10
2023-05-06T17:48:56.989Z,0.85
2023-05-06T17:51:19.924Z,1.10
2023-05-06T17:56:20.536Z,1.10
2023-05-06T17:58:43.165Z,0.93
2023-05-06T18:01:30.826Z,1.65
2023-05-06T18:03:53.461Z,1.00
2023-05-06T18:06:16.415Z,1.40
2023-05-06T18:08:39.471Z,1.02
2023-05-06T18:11:04.389Z,1.00
2023-05-06T18:13:27.112Z,1.10
2023-05-06T18:15:51.606Z,0.90
2023-05-06T18:18:14.424Z,1.35
2023-05-06T18:21:07.252Z,0.98
2023-05-06T18:30:46.564Z,0.90
2023-05-06T18:33:09.292Z,0.85
2023-05-06T18:35:41.479Z,1.50
2023-05-06T18:41:12.224Z,1.15
2023-05-06T18:46:48.448Z,1.20
2023-05-06T18:49:11.254Z,1.10
2023-05-06T18:55:13.564Z,1.23
2023-05-06T19:01:20.784Z,1.48
2023-05-06T19:03:52.584Z,1.17
2023-05-06T19:06:27.247Z,1.10
2023-05-06T19:08:51.120Z,1.20
2023-05-06T19:19:18.839Z,1.20
2023-05-06T19:21:58.334Z,1.52
2023-05-06T19:27:57.102Z,1.67
2023-05-06T19:30:35.198Z,1.40
2023-05-06T19:36:21.908Z,1.08
2023-05-06T19:39:12.021Z,1.40
2023-05-06T19:41:38.197Z,1.27
2023-05-06T19:48:13.085Z,1.40
2023-05-06T19:50:58.921Z,1.55
2023-05-06T19:54:07.556Z,1.20
2023-05-06T19:57:14.139Z,1.77
2023-05-06T19:59:39.457Z,1.48
2023-05-06T20:02:02.327Z,1.52
2023-05-06T20:07:27.034Z,1.60
2023-05-06T20:09:56.012Z,1.52
2023-05-06T20:22:29.360Z,1.50
2023-05-06T20:25:23.066Z,1.35
2023-05-06T20:27:47.272Z,1.48
2023-05-06T20:30:45.137Z,1.45
2023-05-06T20:58:52.202Z,1.73
2023-05-06T21:02:17.952Z,2.10
2023-05-06T21:04:41.538Z,1.88
2023-05-06T21:13:37.117Z,2.30
2023-05-06T21:16:06.658Z,2.15
2023-05-06T21:18:29.432Z,2.10
2023-05-06T21:24:38.822Z,2.00
2023-05-06T21:37:09.432Z,2.30
2023-05-06T21:39:56.751Z,2.17
2023-05-06T21:45:22.166Z,2.50
2023-05-06T21:48:21.228Z,2.43
2023-05-06T21:50:44.056Z,2.20
2023-05-06T21:59:57.249Z,2.50
2023-05-06T22:06:05.810Z,2.37
2023-05-06T22:08:29.832Z,2.63
2023-05-06T22:15:26.505Z,2.40
2023-05-06T22:17:58.289Z,2.53
2023-05-06T22:20:46.927Z,2.40
2023-05-06T22:26:53.863Z,2.50
2023-05-06T22:29:16.470Z,2.90
2023-05-06T22:31:41.582Z,3.00
2023-05-06T22:34:04.687Z,2.80
2023-05-06T22:36:29.219Z,2.47
2023-05-06T22:38:52.063Z,2.87
2023-05-06T22:41:15.518Z,2.70
2023-05-06T22:43:38.189Z,2.60
2023-05-06T22:49:03.422Z,2.70
2023-05-06T22:52:14.690Z,2.80
2023-05-06T22:57:32.461Z,3.00
2023-05-06T22:59:55.269Z,3.07
2023-05-06T23:02:18.223Z,2.90
2023-05-06T23:04:41.184Z,2.90
2023-05-06T23:07:03.644Z,3.37
2023-05-06T23:09:26.203Z,3.47
2023-05-06T23:11:48.564Z,3.53
2023-05-06T23:14:11.035Z,3.27
2023-05-06T23:16:34.028Z,3.00
2023-05-06T23:18:57.214Z,3.43
2023-05-06T23:21:19.431Z,2.90
2023-05-06T23:23:41.783Z,2.93
2023-05-06T23:26:04.018Z,3.17
2023-05-06T23:28:26.304Z,3.33
2023-05-06T23:30:51.466Z,3.37
2023-05-06T23:33:14.439Z,3.27
2023-05-06T23:35:37.104Z,3.73
2023-05-06T23:37:59.474Z,3.40
2023-05-06T23:40:21.972Z,3.77
2023-05-06T23:42:44.302Z,3.73
2023-05-06T23:45:06.782Z,3.57
2023-05-06T23:47:29.067Z,3.70
2023-05-06T23:49:51.578Z,3.10
2023-05-06T23:52:13.892Z,3.60
2023-05-06T23:54:36.159Z,3.50
2023-05-06T23:56:58.462Z,4.00
2023-05-06T23:59:23.506Z,3.40
